sensor_id;sensor_type;location;lat;lon;timestamp;temperature;humidity
15630;DHT22;7914;50.842;0.166;2023-02-21T00:04:19;8.50;1.00
15630;DHT22;7914;50.842;0.166;2023-02-21T00:07:03;8.60;1.00
15630;DHT22;7914;50.842;0.166;2023-02-21T00:09:47;8.50;1.00
15630;DHT22;7914;50.842;0.166;2023-02-21T00:15:16;8.50;1.00
15630;DHT22;7914;50.842;0.166;2023-02-21T00:18:00;9.70;1.00
15630;DHT22;7914;50.842;0.166;2023-02-21T00:20:45;8.50;1.00
15630;DHT22;7914;50.842;0.166;2023-02-21T00:23:35;8.40;1.00
15630;DHT22;7914;50.842;0.166;2023-02-21T00:26:21;8.40;1.00
15630;DHT22;7914;50.842;0.166;2023-02-21T00:29:06;9.50;1.00
15630;DHT22;7914;50.842;0.166;2023-02-21T00:31:51;8.40;1.00
15630;DHT22;7914;50.842;0.166;2023-02-21T00:34:36;8.50;1.00
15630;DHT22;7914;50.842;0.166;2023-02-21T00:37:20;8.50;1.00
15630;DHT22;7914;50.842;0.166;2023-02-21T00:40:04;8.40;1.00
15630;DHT22;7914;50.842;0.166;2023-02-21T00:42:48;8.40;1.00
15630;DHT22;7914;50.842;0.166;2023-02-21T00:45:33;9.20;1.00
15630;DHT22;7914;50.842;0.166;2023-02-21T00:48:21;9.00;1.00
15630;DHT22;7914;50.842;0.166;2023-02-21T00:51:05;8.20;1.00
15630;DHT22;7914;50.842;0.166;2023-02-21T00:53:49;8.30;1.00
15630;DHT22;7914;50.842;0.166;2023-02-21T00:56:33;8.20;1.00
15630;DHT22;7914;50.842;0.166;2023-02-21T00:59:18;8.30;1.00
15630;DHT22;7914;50.842;0.166;2023-02-21T01:02:02;9.10;1.00
15630;DHT22;7914;50.842;0.166;2023-02-21T01:04:47;8.20;1.00
15630;DHT22;7914;50.842;0.166;2023-02-21T01:07:31;8.20;1.00
15630;DHT22;7914;50.842;0.166;2023-02-21T01:10:16;8.20;1.00
15630;DHT22;7914;50.842;0.166;2023-02-21T01:13:00;8.30;1.00
15630;DHT22;7914;50.842;0.166;2023-02-21T01:15:44;8.40;1.00
15630;DHT22;7914;50.842;0.166;2023-02-21T01:18:28;8.40;1.00
15630;DHT22;7914;50.842;0.166;2023-02-21T01:21:14;8.70;1.00
15630;DHT22;7914;50.842;0.166;2023-02-21T01:23:59;8.40;1.00
15630;DHT22;7914;50.842;0.166;2023-02-21T01:26:43;8.40;1.00
15630;DHT22;7914;50.842;0.166;2023-02-21T01:32:12;8.40;1.00
15630;DHT22;7914;50.842;0.166;2023-02-21T01:34:56;8.50;1.00
15630;DHT22;7914;50.842;0.166;2023-02-21T01:37:41;8.40;1.00
15630;DHT22;7914;50.842;0.166;2023-02-21T01:40:26;8.50;1.00
15630;DHT22;7914;50.842;0.166;2023-02-21T01:43:15;8.80;1.00
15630;DHT22;7914;50.842;0.166;2023-02-21T01:46:00;8.40;1.00
15630;DHT22;7914;50.842;0.166;2023-02-21T01:48:45;8.50;1.00
15630;DHT22;7914;50.842;0.166;2023-02-21T01:51:34;8.70;1.00
15630;DHT22;7914;50.842;0.166;2023-02-21T01:54:20;8.50;1.00
15630;DHT22;7914;50.842;0.166;2023-02-21T01:57:06;8.50;1.00
15630;DHT22;7914;50.842;0.166;2023-02-21T01:59:53;8.50;1.00
15630;DHT22;7914;50.842;0.166;2023-02-21T02:06:28;8.50;1.00
15630;DHT22;7914;50.842;0.166;2023-02-21T02:08:53;8.60;1.00
15630;DHT22;7914;50.842;0.166;2023-02-21T02:20:46;8.60;1.00
15630;DHT22;7914;50.842;0.166;2023-02-21T02:28:44;8.60;1.00
15630;DHT22;7914;50.842;0.166;2023-02-21T02:34:29;8.60;1.00
15630;DHT22;7914;50.842;0.166;2023-02-21T02:37:23;8.70;1.00
15630;DHT22;7914;50.842;0.166;2023-02-21T02:43:11;8.70;1.00
15630;DHT22;7914;50.842;0.166;2023-02-21T02:45:50;8.70;1.00
15630;DHT22;7914;50.842;0.166;2023-02-21T02:48:27;8.60;1.00
15630;DHT22;7914;50.842;0.166;2023-02-21T02:50:56;8.60;1.00
15630;DHT22;7914;50.842;0.166;2023-02-21T02:53:28;8.70;1.00
15630;DHT22;7914;50.842;0.166;2023-02-21T02:56:04;10.60;1.00
15630;DHT22;7914;50.842;0.166;2023-02-21T02:58:33;8.70;1.00
15630;DHT22;7914;50.842;0.166;2023-02-21T03:07:36;8.70;1.00
15630;DHT22;7914;50.842;0.166;2023-02-21T03:10:21;8.70;1.00
15630;DHT22;7914;50.842;0.166;2023-02-21T03:12:54;8.70;1.00
15630;DHT22;7914;50.842;0.166;2023-02-21T03:15:50;8.80;1.00
15630;DHT22;7914;50.842;0.166;2023-02-21T03:20:56;8.70;1.00
15630;DHT22;7914;50.842;0.166;2023-02-21T03:23:28;9.90;1.00
15630;DHT22;7914;50.842;0.166;2023-02-21T03:26:00;8.80;1.00
15630;DHT22;7914;50.842;0.166;2023-02-21T03:28:28;8.80;1.00
15630;DHT22;7914;50.842;0.166;2023-02-21T03:30:55;8.70;1.00
15630;DHT22;7914;50.842;0.166;2023-02-21T03:33:22;8.70;1.00
15630;DHT22;7914;50.842;0.166;2023-02-21T03:38:15;8.70;1.00
15630;DHT22;7914;50.842;0.166;2023-02-21T03:40:40;8.70;1.00
15630;DHT22;7914;50.842;0.166;2023-02-21T03:45:33;8.70;1.00
15630;DHT22;7914;50.842;0.166;2023-02-21T03:48:00;8.80;1.00
15630;DHT22;7914;50.842;0.166;2023-02-21T03:50:25;8.70;1.00
15630;DHT22;7914;50.842;0.166;2023-02-21T03:52:51;9.10;1.00
15630;DHT22;7914;50.842;0.166;2023-02-21T03:55:17;8.70;1.00
15630;DHT22;7914;50.842;0.166;2023-02-21T03:57:43;8.80;1.00
15630;DHT22;7914;50.842;0.166;2023-02-21T04:00:10;8.90;1.00
15630;DHT22;7914;50.842;0.166;2023-02-21T04:02:36;8.80;1.00
15630;DHT22;7914;50.842;0.166;2023-02-21T04:05:02;8.70;1.00
15630;DHT22;7914;50.842;0.166;2023-02-21T04:09:54;8.70;1.00
15630;DHT22;7914;50.842;0.166;2023-02-21T04:12:20;8.70;1.00
15630;DHT22;7914;50.842;0.166;2023-02-21T04:14:46;8.70;1.00
15630;DHT22;7914;50.842;0.166;2023-02-21T04:17:12;8.70;1.00
15630;DHT22;7914;50.842;0.166;2023-02-21T04:19:37;8.70;1.00
15630;DHT22;7914;50.842;0.166;2023-02-21T04:22:03;8.70;1.00
15630;DHT22;7914;50.842;0.166;2023-02-21T04:26:55;8.70;1.00
15630;DHT22;7914;50.842;0.166;2023-02-21T04:31:48;8.60;1.00
15630;DHT22;7914;50.842;0.166;2023-02-21T04:34:14;8.60;1.00
15630;DHT22;7914;50.842;0.166;2023-02-21T04:36:40;8.60;1.00
15630;DHT22;7914;50.842;0.166;2023-02-21T04:39:06;8.70;1.00
15630;DHT22;7914;50.842;0.166;2023-02-21T04:41:32;8.60;1.00
15630;DHT22;7914;50.842;0.166;2023-02-21T04:48:51;8.70;1.00
15630;DHT22;7914;50.842;0.166;2023-02-21T04:51:19;8.70;1.00
15630;DHT22;7914;50.842;0.166;2023-02-21T04:53:47;8.70;1.00
15630;DHT22;7914;50.842;0.166;2023-02-21T04:56:13;8.70;1.00
15630;DHT22;7914;50.842;0.166;2023-02-21T04:58:38;8.60;1.00
15630;DHT22;7914;50.842;0.166;2023-02-21T05:01:04;8.60;1.00
15630;DHT22;7914;50.842;0.166;2023-02-21T05:03:30;8.70;1.00
15630;DHT22;7914;50.842;0.166;2023-02-21T05:05:56;8.90;1.00
15630;DHT22;7914;50.842;0.166;2023-02-21T05:08:21;8.60;1.00
15630;DHT22;7914;50.842;0.166;2023-02-21T05:10:48;8.60;1.00
15630;DHT22;7914;50.842;0.166;2023-02-21T05:13:14;8.60;1.00
15630;DHT22;7914;50.842;0.166;2023-02-21T05:15:40;8.60;1.00
15630;DHT22;7914;50.842;0.166;2023-02-21T05:18:06;10.40;1.00
15630;DHT22;7914;50.842;0.166;2023-02-21T05:20:32;10.00;1.00
15630;DHT22;7914;50.842;0.166;2023-02-21T05:22:58;8.50;1.00
15630;DHT22;7914;50.842;0.166;2023-02-21T05:27:51;8.60;1.00
15630;DHT22;7914;50.842;0.166;2023-02-21T05:30:19;8.50;1.00
15630;DHT22;7914;50.842;0.166;2023-02-21T05:32:45;8.50;1.00
15630;DHT22;7914;50.842;0.166;2023-02-21T05:35:12;8.50;1.00
15630;DHT22;7914;50.842;0.166;2023-02-21T05:37:41;8.60;1.00
15630;DHT22;7914;50.842;0.166;2023-02-21T05:40:09;8.50;1.00
15630;DHT22;7914;50.842;0.166;2023-02-21T05:42:36;8.60;1.00
15630;DHT22;7914;50.842;0.166;2023-02-21T05:45:02;9.10;1.00
15630;DHT22;7914;50.842;0.166;2023-02-21T05:47:33;8.50;1.00
15630;DHT22;7914;50.842;0.166;2023-02-21T05:49:59;8.60;1.00
15630;DHT22;7914;50.842;0.166;2023-02-21T05:52:25;8.60;1.00
15630;DHT22;7914;50.842;0.166;2023-02-21T05:54:50;8.70;1.00
15630;DHT22;7914;50.842;0.166;2023-02-21T05:57:17;8.60;1.00
15630;DHT22;7914;50.842;0.166;2023-02-21T05:59:43;8.60;1.00
15630;DHT22;7914;50.842;0.166;2023-02-21T06:02:09;9.10;1.00
15630;DHT22;7914;50.842;0.166;2023-02-21T06:04:34;8.70;1.00
15630;DHT22;7914;50.842;0.166;2023-02-21T06:07:00;8.60;1.00
15630;DHT22;7914;50.842;0.166;2023-02-21T06:09:26;8.50;1.00
15630;DHT22;7914;50.842;0.166;2023-02-21T06:11:55;8.60;1.00
15630;DHT22;7914;50.842;0.166;2023-02-21T06:14:21;8.60;1.00
15630;DHT22;7914;50.842;0.166;2023-02-21T06:16:46;8.60;1.00
15630;DHT22;7914;50.842;0.166;2023-02-21T06:19:13;8.60;1.00
15630;DHT22;7914;50.842;0.166;2023-02-21T06:21:41;8.60;1.00
15630;DHT22;7914;50.842;0.166;2023-02-21T06:24:07;8.50;1.00
15630;DHT22;7914;50.842;0.166;2023-02-21T06:28:59;8.40;1.00
15630;DHT22;7914;50.842;0.166;2023-02-21T06:31:25;9.00;1.00
15630;DHT22;7914;50.842;0.166;2023-02-21T06:33:51;9.10;1.00
15630;DHT22;7914;50.842;0.166;2023-02-21T06:36:23;8.50;1.00
15630;DHT22;7914;50.842;0.166;2023-02-21T06:38:51;8.50;1.00
15630;DHT22;7914;50.842;0.166;2023-02-21T06:41:20;8.50;1.00
15630;DHT22;7914;50.842;0.166;2023-02-21T06:43:49;8.50;1.00
15630;DHT22;7914;50.842;0.166;2023-02-21T06:46:20;8.50;1.00
15630;DHT22;7914;50.842;0.166;2023-02-21T06:48:46;9.60;1.00
15630;DHT22;7914;50.842;0.166;2023-02-21T06:53:40;8.50;1.00
15630;DHT22;7914;50.842;0.166;2023-02-21T06:56:06;8.60;1.00
15630;DHT22;7914;50.842;0.166;2023-02-21T06:58:32;8.50;1.00
15630;DHT22;7914;50.842;0.166;2023-02-21T07:00:58;8.60;1.00
15630;DHT22;7914;50.842;0.166;2023-02-21T07:03:24;8.50;1.00
15630;DHT22;7914;50.842;0.166;2023-02-21T07:05:49;9.70;1.00
15630;DHT22;7914;50.842;0.166;2023-02-21T07:08:15;10.00;1.00
15630;DHT22;7914;50.842;0.166;2023-02-21T07:10:41;9.00;1.00
15630;DHT22;7914;50.842;0.166;2023-02-21T07:13:07;8.60;1.00
15630;DHT22;7914;50.842;0.166;2023-02-21T07:15:32;8.60;1.00
15630;DHT22;7914;50.842;0.166;2023-02-21T07:17:58;8.60;1.00
15630;DHT22;7914;50.842;0.166;2023-02-21T07:20:24;8.60;1.00
15630;DHT22;7914;50.842;0.166;2023-02-21T07:22:50;8.60;1.00
15630;DHT22;7914;50.842;0.166;2023-02-21T07:25:18;8.60;1.00
15630;DHT22;7914;50.842;0.166;2023-02-21T07:27:46;8.60;1.00
15630;DHT22;7914;50.842;0.166;2023-02-21T07:30:13;8.60;1.00
15630;DHT22;7914;50.842;0.166;2023-02-21T07:32:38;8.50;1.00
15630;DHT22;7914;50.842;0.166;2023-02-21T07:35:04;8.70;1.00
15630;DHT22;7914;50.842;0.166;2023-02-21T07:37:30;8.50;1.00
15630;DHT22;7914;50.842;0.166;2023-02-21T07:39:56;8.50;1.00
15630;DHT22;7914;50.842;0.166;2023-02-21T07:42:21;8.60;1.00
15630;DHT22;7914;50.842;0.166;2023-02-21T07:44:47;9.70;1.00
15630;DHT22;7914;50.842;0.166;2023-02-21T07:47:13;8.60;1.00
15630;DHT22;7914;50.842;0.166;2023-02-21T07:49:40;8.70;1.00
15630;DHT22;7914;50.842;0.166;2023-02-21T07:52:06;8.60;1.00
15630;DHT22;7914;50.842;0.166;2023-02-21T07:54:32;8.60;1.00
15630;DHT22;7914;50.842;0.166;2023-02-21T07:59:24;8.60;1.00
15630;DHT22;7914;50.842;0.166;2023-02-21T08:01:49;8.80;1.00
15630;DHT22;7914;50.842;0.166;2023-02-21T08:04:15;8.60;1.00
15630;DHT22;7914;50.842;0.166;2023-02-21T08:06:46;7.60;1.00
15630;DHT22;7914;50.842;0.166;2023-02-21T08:09:13;8.70;1.00
15630;DHT22;7914;50.842;0.166;2023-02-21T08:11:39;8.70;1.00
15630;DHT22;7914;50.842;0.166;2023-02-21T08:14:05;8.70;1.00
15630;DHT22;7914;50.842;0.166;2023-02-21T08:16:31;9.30;1.00
15630;DHT22;7914;50.842;0.166;2023-02-21T08:18:57;8.70;1.00
15630;DHT22;7914;50.842;0.166;2023-02-21T08:21:23;10.10;1.00
15630;DHT22;7914;50.842;0.166;2023-02-21T08:23:54;8.80;1.00
15630;DHT22;7914;50.842;0.166;2023-02-21T08:26:20;8.70;1.00
15630;DHT22;7914;50.842;0.166;2023-02-21T08:28:46;8.80;1.00
15630;DHT22;7914;50.842;0.166;2023-02-21T08:31:12;8.80;1.00
15630;DHT22;7914;50.842;0.166;2023-02-21T08:33:38;8.80;1.00
15630;DHT22;7914;50.842;0.166;2023-02-21T08:36:04;8.80;1.00
15630;DHT22;7914;50.842;0.166;2023-02-21T08:38:30;8.80;1.00
15630;DHT22;7914;50.842;0.166;2023-02-21T08:40:56;9.20;1.00
15630;DHT22;7914;50.842;0.166;2023-02-21T08:43:23;8.90;1.00
15630;DHT22;7914;50.842;0.166;2023-02-21T08:45:49;8.90;1.00
15630;DHT22;7914;50.842;0.166;2023-02-21T08:50:40;8.80;1.00
15630;DHT22;7914;50.842;0.166;2023-02-21T08:53:07;8.80;1.00
15630;DHT22;7914;50.842;0.166;2023-02-21T08:55:32;8.80;1.00
15630;DHT22;7914;50.842;0.166;2023-02-21T08:57:58;8.90;1.00
15630;DHT22;7914;50.842;0.166;2023-02-21T09:00:26;8.90;1.00
15630;DHT22;7914;50.842;0.166;2023-02-21T09:02:55;9.00;1.00
15630;DHT22;7914;50.842;0.166;2023-02-21T09:05:27;9.00;1.00
15630;DHT22;7914;50.842;0.166;2023-02-21T09:08:14;9.00;1.00
15630;DHT22;7914;50.842;0.166;2023-02-21T09:10:40;9.00;1.00
15630;DHT22;7914;50.842;0.166;2023-02-21T09:13:11;8.90;1.00
15630;DHT22;7914;50.842;0.166;2023-02-21T09:15:37;8.80;1.00
15630;DHT22;7914;50.842;0.166;2023-02-21T09:18:03;8.80;1.00
15630;DHT22;7914;50.842;0.166;2023-02-21T09:20:32;8.80;1.00
15630;DHT22;7914;50.842;0.166;2023-02-21T09:22:58;8.80;1.00
15630;DHT22;7914;50.842;0.166;2023-02-21T09:25:24;8.90;1.00
15630;DHT22;7914;50.842;0.166;2023-02-21T09:27:51;8.90;1.00
15630;DHT22;7914;50.842;0.166;2023-02-21T09:30:20;8.90;1.00
15630;DHT22;7914;50.842;0.166;2023-02-21T09:32:48;9.10;1.00
15630;DHT22;7914;50.842;0.166;2023-02-21T09:35:15;9.00;1.00
15630;DHT22;7914;50.842;0.166;2023-02-21T09:37:43;9.20;1.00
15630;DHT22;7914;50.842;0.166;2023-02-21T09:40:39;9.00;1.00
15630;DHT22;7914;50.842;0.166;2023-02-21T09:43:36;9.60;1.00
15630;DHT22;7914;50.842;0.166;2023-02-21T09:46:08;9.10;1.00
15630;DHT22;7914;50.842;0.166;2023-02-21T09:48:36;9.20;1.00
15630;DHT22;7914;50.842;0.166;2023-02-21T09:51:04;9.20;99.90
15630;DHT22;7914;50.842;0.166;2023-02-21T09:53:34;9.20;99.90
15630;DHT22;7914;50.842;0.166;2023-02-21T09:56:07;9.20;99.90
15630;DHT22;7914;50.842;0.166;2023-02-21T09:58:39;9.30;99.90
15630;DHT22;7914;50.842;0.166;2023-02-21T10:01:20;9.00;99.90
15630;DHT22;7914;50.842;0.166;2023-02-21T10:06:54;9.00;99.90
15630;DHT22;7914;50.842;0.166;2023-02-21T10:20:20;9.50;99.90
15630;DHT22;7914;50.842;0.166;2023-02-21T10:22:49;9.60;50.30
15630;DHT22;7914;50.842;0.166;2023-02-21T10:25:26;9.70;99.90
15630;DHT22;7914;50.842;0.166;2023-02-21T10:27:54;9.80;93.00
15630;DHT22;7914;50.842;0.166;2023-02-21T10:30:38;9.80;1.00
15630;DHT22;7914;50.842;0.166;2023-02-21T10:33:05;9.80;1.00
15630;DHT22;7914;50.842;0.166;2023-02-21T10:35:33;10.00;1.00
15630;DHT22;7914;50.842;0.166;2023-02-21T10:38:00;9.90;1.00
15630;DHT22;7914;50.842;0.166;2023-02-21T10:43:00;9.90;10.50
15630;DHT22;7914;50.842;0.166;2023-02-21T10:45:52;9.80;99.90
15630;DHT22;7914;50.842;0.166;2023-02-21T10:48:26;9.90;1.00
15630;DHT22;7914;50.842;0.166;2023-02-21T10:58:47;9.60;99.90
15630;DHT22;7914;50.842;0.166;2023-02-21T11:01:19;9.90;2.10
15630;DHT22;7914;50.842;0.166;2023-02-21T11:03:49;9.80;99.90
15630;DHT22;7914;50.842;0.166;2023-02-21T11:06:26;9.90;70.40
15630;DHT22;7914;50.842;0.166;2023-02-21T11:08:57;9.90;93.50
15630;DHT22;7914;50.842;0.166;2023-02-21T11:11:38;9.90;1.00
15630;DHT22;7914;50.842;0.166;2023-02-21T11:16:42;9.90;1.00
15630;DHT22;7914;50.842;0.166;2023-02-21T11:19:11;9.40;1.00
15630;DHT22;7914;50.842;0.166;2023-02-21T11:24:05;9.20;24.10
15630;DHT22;7914;50.842;0.166;2023-02-21T11:26:50;10.20;25.50
15630;DHT22;7914;50.842;0.166;2023-02-21T11:29:20;9.40;1.00
15630;DHT22;7914;50.842;0.166;2023-02-21T11:34:17;9.70;38.90
15630;DHT22;7914;50.842;0.166;2023-02-21T11:36:45;9.60;1.00
15630;DHT22;7914;50.842;0.166;2023-02-21T11:39:24;9.80;99.90
15630;DHT22;7914;50.842;0.166;2023-02-21T11:42:02;9.80;99.90
15630;DHT22;7914;50.842;0.166;2023-02-21T11:44:34;9.90;1.00
15630;DHT22;7914;50.842;0.166;2023-02-21T11:52:13;9.70;1.00
15630;DHT22;7914;50.842;0.166;2023-02-21T11:54:39;9.90;1.00
15630;DHT22;7914;50.842;0.166;2023-02-21T12:02:46;9.40;1.00
15630;DHT22;7914;50.842;0.166;2023-02-21T12:14:01;9.60;99.90
15630;DHT22;7914;50.842;0.166;2023-02-21T12:39:00;9.60;1.00
15630;DHT22;7914;50.842;0.166;2023-02-21T12:47:06;9.60;99.90
15630;DHT22;7914;50.842;0.166;2023-02-21T12:55:25;8.60;1.00
15630;DHT22;7914;50.842;0.166;2023-02-21T12:57:59;9.40;33.40
15630;DHT22;7914;50.842;0.166;2023-02-21T13:00:55;8.50;1.00
15630;DHT22;7914;50.842;0.166;2023-02-21T13:05:53;8.60;1.00
15630;DHT22;7914;50.842;0.166;2023-02-21T13:08:27;8.60;1.00
15630;DHT22;7914;50.842;0.166;2023-02-21T13:11:10;9.40;1.00
15630;DHT22;7914;50.842;0.166;2023-02-21T13:13:37;8.60;1.00
15630;DHT22;7914;50.842;0.166;2023-02-21T13:16:06;9.20;1.00
15630;DHT22;7914;50.842;0.166;2023-02-21T13:18:39;8.80;1.00
15630;DHT22;7914;50.842;0.166;2023-02-21T13:27:04;8.80;1.00
15630;DHT22;7914;50.842;0.166;2023-02-21T13:29:33;8.60;1.00
15630;DHT22;7914;50.842;0.166;2023-02-21T13:32:00;8.50;1.00
15630;DHT22;7914;50.842;0.166;2023-02-21T13:34:29;8.60;1.00
15630;DHT22;7914;50.842;0.166;2023-02-21T13:37:01;8.80;99.90
15630;DHT22;7914;50.842;0.166;2023-02-21T13:39:31;8.80;99.90
15630;DHT22;7914;50.842;0.166;2023-02-21T13:42:07;9.10;48.60
15630;DHT22;7914;50.842;0.166;2023-02-21T13:44:40;8.70;1.00
15630;DHT22;7914;50.842;0.166;2023-02-21T13:47:10;8.60;99.90
15630;DHT22;7914;50.842;0.166;2023-02-21T13:49:45;8.60;1.00
15630;DHT22;7914;50.842;0.166;2023-02-21T13:52:36;8.10;99.90
15630;DHT22;7914;50.842;0.166;2023-02-21T14:05:25;8.60;82.80
15630;DHT22;7914;50.842;0.166;2023-02-21T14:08:24;8.80;1.00
15630;DHT22;7914;50.842;0.166;2023-02-21T14:10:53;8.60;1.00
15630;DHT22;7914;50.842;0.166;2023-02-21T14:15:55;8.70;1.00
15630;DHT22;7914;50.842;0.166;2023-02-21T14:18:31;8.60;1.00
15630;DHT22;7914;50.842;0.166;2023-02-21T14:23:59;8.90;99.90
15630;DHT22;7914;50.842;0.166;2023-02-21T14:26:45;9.90;99.90
15630;DHT22;7914;50.842;0.166;2023-02-21T14:40:02;8.90;1.00
15630;DHT22;7914;50.842;0.166;2023-02-21T14:43:04;9.00;1.00
15630;DHT22;7914;50.842;0.166;2023-02-21T14:48:59;8.90;99.90
15630;DHT22;7914;50.842;0.166;2023-02-21T15:02:42;9.00;1.00
15630;DHT22;7914;50.842;0.166;2023-02-21T15:08:01;9.10;99.90
15630;DHT22;7914;50.842;0.166;2023-02-21T15:10:32;9.10;99.90
15630;DHT22;7914;50.842;0.166;2023-02-21T15:15:54;9.20;99.90
15630;DHT22;7914;50.842;0.166;2023-02-21T15:18:29;9.40;1.00
15630;DHT22;7914;50.842;0.166;2023-02-21T15:23:41;8.90;1.00
15630;DHT22;7914;50.842;0.166;2023-02-21T15:26:18;8.90;1.00
15630;DHT22;7914;50.842;0.166;2023-02-21T15:31:39;9.10;99.90
15630;DHT22;7914;50.842;0.166;2023-02-21T15:34:12;9.20;1.00
15630;DHT22;7914;50.842;0.166;2023-02-21T15:36:44;9.30;1.00
15630;DHT22;7914;50.842;0.166;2023-02-21T15:39:17;9.20;1.00
15630;DHT22;7914;50.842;0.166;2023-02-21T15:41:48;9.40;1.00
15630;DHT22;7914;50.842;0.166;2023-02-21T15:44:27;9.00;1.00
15630;DHT22;7914;50.842;0.166;2023-02-21T15:47:01;8.90;99.90
15630;DHT22;7914;50.842;0.166;2023-02-21T15:49:37;9.00;99.90
15630;DHT22;7914;50.842;0.166;2023-02-21T15:52:04;9.40;99.90
15630;DHT22;7914;50.842;0.166;2023-02-21T15:54:33;9.00;14.70
15630;DHT22;7914;50.842;0.166;2023-02-21T15:57:21;9.00;32.70
15630;DHT22;7914;50.842;0.166;2023-02-21T15:59:56;9.60;99.90
15630;DHT22;7914;50.842;0.166;2023-02-21T16:02:34;9.00;99.90
15630;DHT22;7914;50.842;0.166;2023-02-21T16:05:00;9.00;98.70
15630;DHT22;7914;50.842;0.166;2023-02-21T16:07:31;9.00;99.90
15630;DHT22;7914;50.842;0.166;2023-02-21T16:10:02;8.90;99.90
15630;DHT22;7914;50.842;0.166;2023-02-21T16:12:39;8.80;99.90
15630;DHT22;7914;50.842;0.166;2023-02-21T16:17:42;8.70;1.00
15630;DHT22;7914;50.842;0.166;2023-02-21T16:20:17;8.70;1.00
15630;DHT22;7914;50.842;0.166;2023-02-21T16:22:48;8.80;1.00
15630;DHT22;7914;50.842;0.166;2023-02-21T16:25:22;8.80;1.00
15630;DHT22;7914;50.842;0.166;2023-02-21T16:27:55;8.70;1.00
15630;DHT22;7914;50.842;0.166;2023-02-21T16:30:26;8.70;41.80
15630;DHT22;7914;50.842;0.166;2023-02-21T16:32:54;8.60;1.00
15630;DHT22;7914;50.842;0.166;2023-02-21T16:35:24;8.60;99.90
15630;DHT22;7914;50.842;0.166;2023-02-21T16:37:52;8.50;1.00
15630;DHT22;7914;50.842;0.166;2023-02-21T16:40:21;8.50;44.50
15630;DHT22;7914;50.842;0.166;2023-02-21T16:42:50;8.40;1.00
15630;DHT22;7914;50.842;0.166;2023-02-21T16:45:16;8.40;99.90
15630;DHT22;7914;50.842;0.166;2023-02-21T16:47:42;8.20;99.90
15630;DHT22;7914;50.842;0.166;2023-02-21T16:50:19;8.10;1.00
15630;DHT22;7914;50.842;0.166;2023-02-21T16:52:45;8.10;1.00
15630;DHT22;7914;50.842;0.166;2023-02-21T16:55:16;8.40;1.00
15630;DHT22;7914;50.842;0.166;2023-02-21T16:57:49;7.80;99.90
15630;DHT22;7914;50.842;0.166;2023-02-21T17:00:17;7.80;1.00
15630;DHT22;7914;50.842;0.166;2023-02-21T17:02:51;7.70;1.00
15630;DHT22;7914;50.842;0.166;2023-02-21T17:05:20;7.60;1.00
15630;DHT22;7914;50.842;0.166;2023-02-21T17:07:50;7.50;1.00
15630;DHT22;7914;50.842;0.166;2023-02-21T17:10:18;7.40;99.90
15630;DHT22;7914;50.842;0.166;2023-02-21T17:12:44;7.40;99.90
15630;DHT22;7914;50.842;0.166;2023-02-21T17:15:10;7.40;99.90
15630;DHT22;7914;50.842;0.166;2023-02-21T17:17:37;7.30;1.00
15630;DHT22;7914;50.842;0.166;2023-02-21T17:20:03;7.20;1.00
15630;DHT22;7914;50.842;0.166;2023-02-21T17:22:29;7.10;1.00
15630;DHT22;7914;50.842;0.166;2023-02-21T17:24:55;7.00;1.00
15630;DHT22;7914;50.842;0.166;2023-02-21T17:27:21;8.80;99.90
15630;DHT22;7914;50.842;0.166;2023-02-21T17:29:47;7.20;99.90
15630;DHT22;7914;50.842;0.166;2023-02-21T17:32:13;8.20;99.90
15630;DHT22;7914;50.842;0.166;2023-02-21T17:34:39;6.90;99.90
15630;DHT22;7914;50.842;0.166;2023-02-21T17:37:04;6.80;99.90
15630;DHT22;7914;50.842;0.166;2023-02-21T17:39:30;7.80;1.00
15630;DHT22;7914;50.842;0.166;2023-02-21T17:41:56;6.70;99.90
15630;DHT22;7914;50.842;0.166;2023-02-21T17:44:22;6.60;1.00
15630;DHT22;7914;50.842;0.166;2023-02-21T17:46:50;6.70;1.00
15630;DHT22;7914;50.842;0.166;2023-02-21T17:49:18;6.50;1.00
15630;DHT22;7914;50.842;0.166;2023-02-21T17:51:45;6.50;1.00
15630;DHT22;7914;50.842;0.166;2023-02-21T17:54:12;7.90;1.00
15630;DHT22;7914;50.842;0.166;2023-02-21T17:56:38;6.50;1.00
15630;DHT22;7914;50.842;0.166;2023-02-21T17:59:04;6.50;1.00
15630;DHT22;7914;50.842;0.166;2023-02-21T18:01:30;7.50;1.00
15630;DHT22;7914;50.842;0.166;2023-02-21T18:03:56;6.90;1.00
15630;DHT22;7914;50.842;0.166;2023-02-21T18:06:21;7.70;1.00
15630;DHT22;7914;50.842;0.166;2023-02-21T18:08:47;6.40;1.00
15630;DHT22;7914;50.842;0.166;2023-02-21T18:11:15;6.40;1.00
15630;DHT22;7914;50.842;0.166;2023-02-21T18:13:42;6.60;1.00
15630;DHT22;7914;50.842;0.166;2023-02-21T18:16:07;6.50;1.00
15630;DHT22;7914;50.842;0.166;2023-02-21T18:18:33;6.30;1.00
15630;DHT22;7914;50.842;0.166;2023-02-21T18:21:00;7.50;1.00
15630;DHT22;7914;50.842;0.166;2023-02-21T18:23:28;6.40;1.00
15630;DHT22;7914;50.842;0.166;2023-02-21T18:25:54;6.30;1.00
15630;DHT22;7914;50.842;0.166;2023-02-21T18:28:20;6.30;1.00
15630;DHT22;7914;50.842;0.166;2023-02-21T18:30:46;7.40;1.00
15630;DHT22;7914;50.842;0.166;2023-02-21T18:33:12;6.30;1.00
15630;DHT22;7914;50.842;0.166;2023-02-21T18:35:38;6.20;1.00
15630;DHT22;7914;50.842;0.166;2023-02-21T18:38:04;6.20;1.00
15630;DHT22;7914;50.842;0.166;2023-02-21T18:40:30;6.10;1.00
15630;DHT22;7914;50.842;0.166;2023-02-21T18:43:04;6.50;1.00
15630;DHT22;7914;50.842;0.166;2023-02-21T18:45:31;6.00;99.90
15630;DHT22;7914;50.842;0.166;2023-02-21T18:48:00;7.20;99.90
15630;DHT22;7914;50.842;0.166;2023-02-21T18:50:26;5.90;75.80
15630;DHT22;7914;50.842;0.166;2023-02-21T18:55:18;5.90;99.90
15630;DHT22;7914;50.842;0.166;2023-02-21T18:57:45;5.90;99.90
15630;DHT22;7914;50.842;0.166;2023-02-21T19:00:16;5.80;99.90
15630;DHT22;7914;50.842;0.166;2023-02-21T19:02:41;5.80;99.90
15630;DHT22;7914;50.842;0.166;2023-02-21T19:05:13;5.80;99.90
15630;DHT22;7914;50.842;0.166;2023-02-21T19:07:41;7.70;99.90
15630;DHT22;7914;50.842;0.166;2023-02-21T19:10:09;7.00;99.90
15630;DHT22;7914;50.842;0.166;2023-02-21T19:12:35;5.80;99.90
15630;DHT22;7914;50.842;0.166;2023-02-21T19:15:02;8.10;99.90
15630;DHT22;7914;50.842;0.166;2023-02-21T19:17:28;6.80;99.90
15630;DHT22;7914;50.842;0.166;2023-02-21T19:19:53;5.90;99.90
15630;DHT22;7914;50.842;0.166;2023-02-21T19:22:19;6.40;99.90
15630;DHT22;7914;50.842;0.166;2023-02-21T19:24:45;6.80;76.60
15630;DHT22;7914;50.842;0.166;2023-02-21T19:27:10;6.70;99.90
15630;DHT22;7914;50.842;0.166;2023-02-21T19:29:36;5.70;99.90
15630;DHT22;7914;50.842;0.166;2023-02-21T19:32:02;5.80;99.90
15630;DHT22;7914;50.842;0.166;2023-02-21T19:34:28;5.70;1.00
15630;DHT22;7914;50.842;0.166;2023-02-21T19:36:54;5.60;1.00
15630;DHT22;7914;50.842;0.166;2023-02-21T19:41:45;5.50;99.50
15630;DHT22;7914;50.842;0.166;2023-02-21T19:44:11;6.20;50.20
15630;DHT22;7914;50.842;0.166;2023-02-21T19:46:37;5.40;42.20
15630;DHT22;7914;50.842;0.166;2023-02-21T19:49:03;5.40;99.90
15630;DHT22;7914;50.842;0.166;2023-02-21T19:51:32;5.40;99.90
15630;DHT22;7914;50.842;0.166;2023-02-21T19:53:58;5.50;99.90
15630;DHT22;7914;50.842;0.166;2023-02-21T19:56:28;6.30;99.90
15630;DHT22;7914;50.842;0.166;2023-02-21T19:58:54;5.50;95.50
15630;DHT22;7914;50.842;0.166;2023-02-21T20:01:20;6.30;1.00
15630;DHT22;7914;50.842;0.166;2023-02-21T20:03:49;5.40;1.00
15630;DHT22;7914;50.842;0.166;2023-02-21T20:06:15;6.80;1.00
15630;DHT22;7914;50.842;0.166;2023-02-21T20:08:42;6.00;1.00
15630;DHT22;7914;50.842;0.166;2023-02-21T20:11:21;6.60;21.60
15630;DHT22;7914;50.842;0.166;2023-02-21T20:13:48;5.50;1.00
15630;DHT22;7914;50.842;0.166;2023-02-21T20:16:14;5.40;1.00
15630;DHT22;7914;50.842;0.166;2023-02-21T20:18:42;7.20;1.00
15630;DHT22;7914;50.842;0.166;2023-02-21T20:21:08;7.30;1.00
15630;DHT22;7914;50.842;0.166;2023-02-21T20:23:34;5.30;1.00